Weather at Dillant Hopkins Airport

Public forecast

Using degrees Fahrenheit for public forecast. Weather courtesy of forecast.io.

Current aviation weather report (METAR) for Dillant Hopkins Airport

Retrieved 2020/09/29 22:56 UTC (6 minutes ago):

KEEN 292256Z AUTO 00000KT 6SM -RA BR BKN020 BKN031 OVC043 21/20 A2983 RMK AO2 RAB52 SLP102 T02060200 PNO

Closest aviation forecast (TAF) to Dillant Hopkins Airport

Closest forecast is Manchester-Boston Regional Airport, 36.8 nm (68.1 km) E. Retrieved 2020/09/29 18:22 UTC (5 hours ago):

TAF KMHT 291720Z 2918/3018 19008KT P6SM FEW035 BKN250 FM300300 14007KT 5SM -SHRA BR OVC020 FM300700 16012G23KT 3SM -RA BR OVC007 WS020/18050KT FM301400 24010G17KT P6SM BKN020 OVC100